ADDS METAR Data INFO
IDs: Format: Raw Decoded Include TAF

Data at: 1923 UTC 19 Jul 2018

KAJO 191856Z AUTO 27011G16KT 10SM CLR 32/21 A2994 RMK AO2 SLP140 T03220206 $
KAJO 191756Z AUTO 29007KT 10SM CLR 31/20 A2996 RMK AO2 SLP148 6//// T03110200 10311 20183 58008 $
KAJO 191656Z AUTO VRB03KT 10SM CLR 28/19 A2997 RMK AO2 SLP153 T02830194 $
KAJO 191556Z AUTO 09003KT 10SM CLR 26/18 A2998 RMK AO2 SLP157 T02610183 $
KAJO 191456Z AUTO 00000KT 10SM CLR 23/18 A2999 RMK AO2 SLP158 6//// T02330183 50006 $
KAJO 191356Z AUTO 00000KT 10SM CLR 21/18 A2999 RMK AO2 SLP159 T02060178 $
KAJO 191256Z AUTO 00000KT 10SM CLR 18/17 A2998 RMK AO2 SLP158 T01830167 $
KAJO 191156Z AUTO 00000KT 10SM CLR 19/17 A2997 RMK AO2 SLP151 6//// 7//// T01940172 10211 20183 55001 $
KAJO 191056Z AUTO 29003KT 10SM CLR 19/17 A2996 RMK AO2 SLP149 T01940172 $
KAJO 190956Z AUTO 10SM CLR 19/17 A2996 RMK AO2 SLP149 T01890167 $
KAJO 190856Z AUTO 34003KT 10SM CLR 19/17 A2997 RMK AO2 SLP151 6//// T01940172 58013 $
KAJO 190756Z AUTO 10SM CLR 21/18 A2998 RMK AO2 SLP157 T02060178 403330194 $
KAJO 190656Z AUTO 30004KT 10SM CLR 21/18 A3000 RMK AO2 SLP163 T02110178 $
KAJO 190556Z AUTO 29006KT 10SM CLR 21/18 A3001 RMK AO2 SLP167 6//// T02110178 10300 20211 51025 $
KAJO 190456Z AUTO 30007KT 10SM CLR 22/18 A3000 RMK AO2 SLP162 T02170178 $
KAJO 190356Z AUTO 10SM CLR 23/18 A2996 RMK AO2 SLP149 T02280178 $
KAJO 190256Z AUTO 27008KT 10SM CLR 25/18 A2993 RMK AO2 SLP141 T02500183 53007 $
KAJO 190156Z AUTO 28011KT 10SM CLR 27/19 A2992 RMK AO2 SLP135 T02670189 $
KAJO 190056Z AUTO 29010G17KT 10SM CLR 29/19 A2990 RMK AO2 SLP129 T02890194 $
KAJO 182356Z AUTO 28011G17KT 10SM CLR 30/20 A2991 RMK AO2 SLP133 T03000200 10333 20256 56015 $
KAJO 182256Z AUTO 29011G19KT 10SM CLR 31/20 A2993 RMK AO2 SLP137 T03110200 $
KAJO 182156Z AUTO 29011KT 10SM CLR 33/20 A2994 RMK AO2 SLP141 T03280200 $
KAJO 181956Z AUTO VRB04KT 10SM CLR 29/20 A2999 RMK AO2 SLP158 T02940200 $
KAJO 181856Z AUTO 33005KT 10SM CLR 28/19 A3001 RMK AO2 SLP168 T02780194 $
KAJO 181756Z AUTO 32004KT 10SM CLR 26/19 A3003 RMK AO2 SLP174 6//// T02560189 10267 20200 50014 $
KAJO 181656Z AUTO 27004KT 10SM CLR 24/18 A3003 RMK AO2 SLP174 T02440183 $
KAJO 181556Z AUTO 28004KT 10SM CLR 23/18 A3002 RMK AO2 SLP172 T02330183 $
KAJO 181456Z AUTO 27006KT 10SM CLR 22/18 A2999 RMK AO2 SLP160 6//// T02220183 $
KAJO 181356Z AUTO 27004KT 10SM CLR 21/18 A2998 RMK AO2 SLP157 T02110183 $
KAJO 181256Z AUTO 00000KT 9SM FEW110 20/18 A2999 RMK AO2 TSE25B27E39B41E45 SLP160 T02000183 $
KAJO 181251Z AUTO 25003KT 10SM FEW070 20/18 RMK AO2 TSE25B27E39B41E45 $
KAJO 181241Z AUTO 28003KT 10SM VCTS FEW070 SCT110 21/19 RMK AO2 TSE25B27E39B41 $
KAJO 181227Z AUTO 35004KT 8SM VCTS FEW070 SCT095 BKN120 20/18 A2999 RMK AO2 TSE25B27 $
KAJO 181156Z AUTO 00000KT 10SM VCTS FEW100 20/18 A3003 RMK AO2 LTG DSNT NE TSB51 SLP171 6//// 7//// T02000183 10211 20194 53014 $
KAJO 181056Z AUTO 10SM SCT014 19/18 A3001 RMK AO2 SLP164 T01940178 $
KAJO 181052Z AUTO 00000KT 10SM SCT014 20/18 A3000 RMK AO2 $
KAJO 181043Z AUTO 00000KT 9SM BKN014 19/18 A3000 RMK AO2 $
KAJO 180956Z AUTO 36004KT 9SM CLR 19/18 A2998 RMK AO2 SLP156 T01940178 $
KAJO 180856Z AUTO 30004KT 10SM CLR 21/18 A2999 RMK AO2 SLP157 6//// T02060183 $
KAJO 180756Z AUTO 30004KT 10SM CLR 21/18 A2998 RMK AO2 SLP153 T02060183 403330172 $